createdAt,value
2022-12-15T00:01:26.821Z,97505.41
2022-12-15T00:04:50.192Z,97502.45
2022-12-15T00:08:13.764Z,97505.66
2022-12-15T00:11:37.127Z,97502.21
2022-12-15T00:15:00.904Z,97503.83
2022-12-15T00:18:27.038Z,97509.02
2022-12-15T00:21:50.916Z,97521.77
2022-12-15T00:25:14.282Z,97523.85
2022-12-15T00:28:37.650Z,97538.95
2022-12-15T00:32:00.942Z,97550.55
2022-12-15T00:35:26.026Z,97561.80
2022-12-15T00:38:44.746Z,97564.50
2022-12-15T00:41:50.637Z,97563.59
2022-12-15T00:44:57.023Z,97568.73
2022-12-15T00:48:01.224Z,97567.17
2022-12-15T00:51:07.612Z,97568.98
2022-12-15T00:54:31.471Z,97573.80
2022-12-15T00:57:54.737Z,97582.21
2022-12-15T01:01:24.124Z,97584.70
2022-12-15T01:04:47.922Z,97586.98
2022-12-15T01:08:11.186Z,97591.09
2022-12-15T01:11:34.451Z,97590.79
2022-12-15T01:14:57.817Z,97601.87
2022-12-15T01:18:21.393Z,97601.84
2022-12-15T01:21:27.263Z,97607.08
2022-12-15T01:24:33.103Z,97616.90
2022-12-15T01:27:38.960Z,97618.69
2022-12-15T01:30:44.610Z,97625.30
2022-12-15T01:33:50.259Z,97632.61
2022-12-15T01:36:55.911Z,97638.96
2022-12-15T01:40:19.894Z,97640.39
2022-12-15T01:43:28.593Z,97636.37
2022-12-15T01:46:34.628Z,97637.79
2022-12-15T01:49:42.481Z,97639.21
2022-12-15T01:52:49.665Z,97641.48
2022-12-15T01:55:55.729Z,97634.86
2022-12-15T01:59:03.903Z,97640.90
2022-12-15T02:02:10.478Z,97647.21
2022-12-15T02:05:16.784Z,97648.77
2022-12-15T02:08:20.900Z,97653.38
2022-12-15T02:11:45.492Z,97655.22
2022-12-15T02:15:01.600Z,97663.44
2022-12-15T02:18:10.164Z,97666.65
2022-12-15T02:21:19.446Z,97669.03
2022-12-15T02:24:59.302Z,97670.55
2022-12-15T02:28:09.432Z,97677.80
2022-12-15T02:31:36.465Z,97682.62
2022-12-15T02:34:47.695Z,97679.77
2022-12-15T02:37:53.957Z,97687.23
2022-12-15T02:40:59.959Z,97687.10
2022-12-15T02:44:08.435Z,97687.38
2022-12-15T02:47:29.005Z,97688.98
2022-12-15T02:51:04.902Z,97695.02
2022-12-15T02:54:24.482Z,97700.42
2022-12-15T02:57:38.937Z,97702.42
2022-12-15T03:00:51.812Z,97703.00
2022-12-15T03:03:59.557Z,97701.84
2022-12-15T03:07:09.450Z,97703.00
2022-12-15T03:10:16.293Z,97706.44
2022-12-15T03:13:22.002Z,97709.94
2022-12-15T03:16:27.705Z,97708.45
2022-12-15T03:19:33.488Z,97710.63
2022-12-15T03:22:39.341Z,97711.70
2022-12-15T03:25:49.898Z,97721.34
2022-12-15T03:28:55.728Z,97721.72
2022-12-15T03:32:01.322Z,97722.66
2022-12-15T03:35:08.670Z,97727.95
2022-12-15T03:38:14.174Z,97732.05
2022-12-15T03:41:20.101Z,97727.88
2022-12-15T03:44:26.138Z,97732.73
2022-12-15T03:47:32.223Z,97747.61
2022-12-15T03:50:37.705Z,97751.22
2022-12-15T03:53:43.298Z,97757.93
2022-12-15T03:56:49.051Z,97763.23
2022-12-15T03:59:55.833Z,97770.17
2022-12-15T04:03:01.722Z,97774.55
2022-12-15T04:06:08.309Z,97773.66
2022-12-15T04:09:13.911Z,97779.53
2022-12-15T04:12:19.465Z,97783.46
2022-12-15T04:15:25.317Z,97785.94
2022-12-15T04:18:31.278Z,97785.45
2022-12-15T04:21:36.927Z,97790.09
2022-12-15T04:24:59.975Z,97794.91
2022-12-15T04:28:23.768Z,97794.00
2022-12-15T04:31:49.583Z,97797.27
2022-12-15T04:35:12.706Z,97796.95
2022-12-15T04:38:35.939Z,97800.97
2022-12-15T04:41:58.973Z,97810.29
2022-12-15T04:45:24.900Z,97815.77
2022-12-15T04:48:46.465Z,97819.30
2022-12-15T04:52:10.098Z,97821.11
2022-12-15T04:55:33.260Z,97825.06
2022-12-15T04:58:56.218Z,97829.77
2022-12-15T05:02:19.495Z,97831.89
2022-12-15T05:05:43.055Z,97831.06
2022-12-15T05:09:06.216Z,97836.27
2022-12-15T05:12:29.482Z,97839.60
2022-12-15T05:15:52.995Z,97842.80
2022-12-15T05:19:16.626Z,97844.96
2022-12-15T05:22:39.729Z,97849.38
2022-12-15T05:26:03.665Z,97853.99
2022-12-15T05:29:27.287Z,97857.48
2022-12-15T05:32:34.409Z,97863.66
2022-12-15T05:35:39.977Z,97864.86
2022-12-15T05:38:45.628Z,97875.09
2022-12-15T05:41:57.626Z,97880.28
2022-12-15T05:45:03.484Z,97890.83
2022-12-15T05:48:09.652Z,97898.30
2022-12-15T05:51:16.223Z,97903.88
2022-12-15T05:54:22.692Z,97914.47
2022-12-15T05:57:28.343Z,97919.98
2022-12-15T06:00:34.865Z,97924.94
2022-12-15T06:03:41.018Z,97929.85
2022-12-15T06:06:46.634Z,97933.80
2022-12-15T06:09:52.796Z,97939.37
2022-12-15T06:12:58.756Z,97947.13
2022-12-15T06:16:07.297Z,97951.94
2022-12-15T06:19:13.026Z,97954.40
2022-12-15T06:22:18.681Z,97957.95
2022-12-15T06:25:24.314Z,97964.84
2022-12-15T06:28:30.391Z,97968.10
2022-12-15T06:31:37.088Z,97967.88
2022-12-15T06:34:42.692Z,97970.95
2022-12-15T06:37:48.163Z,97968.17
2022-12-15T06:40:58.835Z,97979.36
2022-12-15T06:44:04.794Z,97985.65
2022-12-15T06:47:10.531Z,97991.35
2022-12-15T06:50:16.609Z,97994.91
2022-12-15T06:53:24.264Z,98002.45
2022-12-15T06:56:34.160Z,98015.63
2022-12-15T06:59:40.906Z,98035.89
2022-12-15T07:02:45.297Z,98049.78
2022-12-15T07:06:06.477Z,98055.48
2022-12-15T07:09:17.317Z,98060.52
2022-12-15T07:12:23.026Z,98066.25
2022-12-15T07:15:28.551Z,98067.68
2022-12-15T07:18:34.515Z,98071.17
2022-12-15T07:21:41.261Z,98077.02
2022-12-15T07:24:47.454Z,98076.05
2022-12-15T07:27:53.207Z,98078.85
2022-12-15T07:31:02.807Z,98078.67
2022-12-15T07:34:08.498Z,98079.80
2022-12-15T07:37:14.462Z,98081.39
2022-12-15T07:40:20.619Z,98084.89
2022-12-15T07:43:27.311Z,98089.31
2022-12-15T07:46:33.047Z,98097.48
2022-12-15T07:49:39.117Z,98102.73
2022-12-15T07:52:44.678Z,98109.97
2022-12-15T07:56:07.333Z,98116.79
2022-12-15T07:59:14.074Z,98121.66
2022-12-15T08:02:20.322Z,98126.64
2022-12-15T08:05:26.217Z,98130.98
2022-12-15T08:08:32.386Z,98135.54
2022-12-15T08:11:38.468Z,98138.45
2022-12-15T08:14:43.993Z,98149.44
2022-12-15T08:17:56.227Z,98155.84
2022-12-15T08:21:07.073Z,98160.06
2022-12-15T08:24:13.994Z,98172.48
2022-12-15T08:27:21.621Z,98178.02
2022-12-15T08:30:27.716Z,98185.88
2022-12-15T08:33:33.823Z,98190.63
2022-12-15T08:36:39.943Z,98199.77
2022-12-15T08:39:45.592Z,98202.18
2022-12-15T08:42:51.135Z,98203.13
2022-12-15T08:45:56.741Z,98213.61
2022-12-15T08:49:03.370Z,98213.83
2022-12-15T08:52:09.018Z,98213.34
2022-12-15T08:55:19.328Z,98217.28
2022-12-15T08:58:27.901Z,98237.68
2022-12-15T09:01:39.503Z,98228.73
2022-12-15T09:04:45.518Z,98230.89
2022-12-15T09:07:55.612Z,98242.23
2022-12-15T09:11:02.483Z,98233.98
2022-12-15T09:14:09.053Z,98223.57
2022-12-15T09:17:14.559Z,98214.29
2022-12-15T09:20:21.042Z,98215.46
2022-12-15T09:23:25.132Z,98218.39
2022-12-15T09:26:33.419Z,98216.02
2022-12-15T09:29:39.371Z,98217.09
2022-12-15T09:32:44.919Z,98209.23
2022-12-15T09:35:54.501Z,98213.34
2022-12-15T09:39:02.140Z,98215.64
2022-12-15T09:42:23.308Z,98220.45
2022-12-15T09:45:38.660Z,98218.35
2022-12-15T09:48:48.112Z,98212.23
2022-12-15T09:52:01.000Z,98212.18
2022-12-15T09:55:20.576Z,98209.88
2022-12-15T09:58:41.270Z,98220.23
2022-12-15T10:01:53.738Z,98224.59
2022-12-15T10:05:10.826Z,98230.46
2022-12-15T10:08:17.307Z,98226.24
2022-12-15T10:11:34.012Z,98219.59
2022-12-15T10:14:43.716Z,98226.69
2022-12-15T10:17:54.634Z,98237.52
2022-12-15T10:21:02.949Z,98242.31
2022-12-15T10:24:37.392Z,98238.79
2022-12-15T10:28:04.790Z,98217.21
2022-12-15T10:31:20.311Z,98225.48
2022-12-15T10:34:31.561Z,98234.39
2022-12-15T10:37:37.986Z,98242.98
2022-12-15T10:40:50.608Z,98245.64
2022-12-15T10:43:57.570Z,98246.48
2022-12-15T10:47:12.541Z,98244.92
2022-12-15T10:50:26.011Z,98245.39
2022-12-15T10:53:44.133Z,98244.91
2022-12-15T10:56:57.901Z,98254.41
2022-12-15T11:00:28.407Z,98256.18
2022-12-15T11:03:40.148Z,98259.80
2022-12-15T11:06:46.110Z,98267.17
2022-12-15T11:09:59.277Z,98259.20
2022-12-15T11:13:15.683Z,98265.51
2022-12-15T11:16:21.949Z,98274.92
2022-12-15T11:19:37.693Z,98278.05
2022-12-15T11:22:50.179Z,98279.84
2022-12-15T11:26:04.929Z,98294.25
2022-12-15T11:29:24.862Z,98302.23
2022-12-15T11:32:34.074Z,98301.77
2022-12-15T11:35:54.946Z,98294.27
2022-12-15T11:39:09.684Z,98292.54
2022-12-15T11:42:21.817Z,98297.58
2022-12-15T11:45:35.773Z,98297.85
2022-12-15T11:48:49.912Z,98293.02
2022-12-15T11:52:04.572Z,98295.15
2022-12-15T11:55:21.794Z,98299.67
2022-12-15T11:58:45.572Z,98306.83
2022-12-15T12:02:12.885Z,98314.34
2022-12-15T12:05:36.698Z,98316.13
2022-12-15T12:09:16.515Z,98313.58
2022-12-15T12:12:31.934Z,98312.13
2022-12-15T12:15:52.237Z,98318.63
2022-12-15T12:19:03.591Z,98325.91
2022-12-15T12:22:22.384Z,98325.95
2022-12-15T12:25:28.469Z,98318.59
2022-12-15T12:28:44.533Z,98325.64
2022-12-15T12:32:05.314Z,98327.63
2022-12-15T12:35:31.676Z,98337.92
2022-12-15T12:38:46.449Z,98342.96
2022-12-15T12:42:06.030Z,98334.38
2022-12-15T12:45:16.047Z,98336.02
2022-12-15T12:48:27.809Z,98334.08
2022-12-15T12:51:35.073Z,98328.15
2022-12-15T12:54:52.289Z,98328.53
2022-12-15T12:57:58.471Z,98324.98
2022-12-15T13:01:20.584Z,98327.74
2022-12-15T13:04:40.679Z,98337.05
2022-12-15T13:07:56.989Z,98347.02
2022-12-15T13:11:40.419Z,98345.16
2022-12-15T13:14:51.899Z,98348.63
2022-12-15T13:18:00.666Z,98345.57
2022-12-15T13:21:44.415Z,98350.91
2022-12-15T13:24:52.174Z,98358.61
2022-12-15T13:28:02.955Z,98355.31
2022-12-15T13:31:29.243Z,98349.41
2022-12-15T13:34:40.024Z,98347.77
2022-12-15T13:37:50.489Z,98349.69
2022-12-15T13:40:56.629Z,98354.06
2022-12-15T13:44:13.705Z,98351.36
2022-12-15T13:47:27.336Z,98345.91
2022-12-15T13:50:42.291Z,98353.77
2022-12-15T13:53:54.007Z,98357.20
2022-12-15T13:57:05.658Z,98357.30
2022-12-15T14:00:18.797Z,98358.45
2022-12-15T14:03:25.166Z,98358.17
2022-12-15T14:06:37.853Z,98361.13
2022-12-15T14:09:44.682Z,98364.03
2022-12-15T14:12:53.518Z,98373.97
2022-12-15T14:16:03.109Z,98382.21
2022-12-15T14:19:19.382Z,98390.84
2022-12-15T14:22:28.698Z,98393.42
2022-12-15T14:25:35.161Z,98400.52
2022-12-15T14:28:43.280Z,98394.35
2022-12-15T14:31:51.896Z,98390.84
2022-12-15T14:34:57.553Z,98391.92
2022-12-15T14:38:08.078Z,98402.17
2022-12-15T14:41:21.618Z,98409.23
2022-12-15T14:44:38.686Z,98417.77
2022-12-15T14:48:30.471Z,98424.92
2022-12-15T14:51:21.822Z,98426.92
2022-12-15T14:54:35.627Z,98425.14
2022-12-15T14:57:44.824Z,98433.40
2022-12-15T15:00:53.749Z,98438.30
2022-12-15T15:04:02.579Z,98444.26
2022-12-15T15:07:16.789Z,98448.54
2022-12-15T15:10:30.141Z,98448.25
2022-12-15T15:13:40.867Z,98452.23
2022-12-15T15:16:58.840Z,98450.36
2022-12-15T15:20:08.128Z,98449.16
2022-12-15T15:23:19.008Z,98441.10
2022-12-15T15:26:26.663Z,98439.24
2022-12-15T15:29:39.442Z,98447.03
2022-12-15T15:32:54.757Z,98452.29
2022-12-15T15:36:01.954Z,98443.07
2022-12-15T15:39:14.139Z,98439.66
2022-12-15T15:42:20.109Z,98443.37
2022-12-15T15:45:26.125Z,98456.27
2022-12-15T15:48:35.606Z,98463.45
2022-12-15T15:51:41.880Z,98468.17
2022-12-15T15:54:48.741Z,98473.45
2022-12-15T15:57:54.312Z,98481.48
2022-12-15T16:01:00.165Z,98488.23
2022-12-15T16:04:06.844Z,98482.42
2022-12-15T16:07:21.813Z,98481.16
2022-12-15T16:10:28.285Z,98485.92
2022-12-15T16:13:33.836Z,98481.27
2022-12-15T16:16:39.447Z,98476.08
2022-12-15T16:19:45.040Z,98473.38
2022-12-15T16:22:55.902Z,98473.40
2022-12-15T16:26:02.481Z,98468.39
2022-12-15T16:29:16.696Z,98462.68
2022-12-15T16:32:22.391Z,98453.20
2022-12-15T16:35:28.746Z,98449.31
2022-12-15T16:38:33.616Z,98454.02
2022-12-15T16:41:39.550Z,98447.55
2022-12-15T16:44:45.506Z,98463.55
2022-12-15T16:47:51.048Z,98468.16
2022-12-15T16:50:59.574Z,98466.90
2022-12-15T16:54:05.845Z,98465.62
2022-12-15T16:57:13.041Z,98465.70
2022-12-15T17:00:22.217Z,98464.70
2022-12-15T17:03:28.143Z,98468.61
2022-12-15T17:06:33.977Z,98475.80
2022-12-15T17:09:39.629Z,98466.39
2022-12-15T17:12:46.109Z,98460.88
2022-12-15T17:15:51.787Z,98464.63
2022-12-15T17:18:57.709Z,98474.06
2022-12-15T17:22:03.384Z,98475.52
2022-12-15T17:25:17.464Z,98478.75
2022-12-15T17:28:26.091Z,98476.95
2022-12-15T17:31:35.701Z,98479.78
2022-12-15T17:34:41.739Z,98474.64
2022-12-15T17:37:47.712Z,98462.89
2022-12-15T17:40:54.025Z,98457.00
2022-12-15T17:44:31.041Z,98444.88
2022-12-15T17:47:25.565Z,98429.69
2022-12-15T17:50:33.664Z,98434.30
2022-12-15T17:53:40.858Z,98436.37
2022-12-15T17:56:48.994Z,98431.77
2022-12-15T17:59:54.704Z,98431.70
2022-12-15T18:03:01.817Z,98423.09
2022-12-15T18:06:13.378Z,98417.70
2022-12-15T18:09:20.882Z,98418.80
2022-12-15T18:12:29.151Z,98426.40
2022-12-15T18:15:35.147Z,98427.80
2022-12-15T18:18:40.901Z,98430.75
2022-12-15T18:21:46.446Z,98432.96
2022-12-15T18:24:54.054Z,98435.23
2022-12-15T18:27:59.627Z,98446.19
2022-12-15T18:31:13.815Z,98449.88
2022-12-15T18:34:22.145Z,98448.50
2022-12-15T18:37:28.260Z,98454.85
2022-12-15T18:40:33.881Z,98464.07
2022-12-15T18:43:39.632Z,98466.06
2022-12-15T18:46:48.078Z,98468.99
2022-12-15T18:49:54.000Z,98473.66
2022-12-15T18:53:04.180Z,98482.27
2022-12-15T18:56:11.681Z,98478.61
2022-12-15T18:59:18.481Z,98476.86
2022-12-15T19:02:24.304Z,98473.75
2022-12-15T19:05:32.718Z,98468.32
2022-12-15T19:08:39.795Z,98459.71
2022-12-15T19:12:17.875Z,98456.17
2022-12-15T19:15:24.761Z,98453.41
2022-12-15T19:18:48.156Z,98443.45
2022-12-15T19:22:13.776Z,98440.52
2022-12-15T19:25:26.210Z,98437.74
2022-12-15T19:28:33.194Z,98424.67
2022-12-15T19:31:38.799Z,98416.09
2022-12-15T19:34:45.086Z,98411.73
2022-12-15T19:37:51.148Z,98401.85
2022-12-15T19:40:58.525Z,98403.20
2022-12-15T19:44:06.779Z,98409.59
2022-12-15T19:47:15.084Z,98422.55
2022-12-15T19:50:23.056Z,98429.20
2022-12-15T19:53:31.396Z,98420.48
2022-12-15T19:56:37.450Z,98416.54
2022-12-15T19:59:43.920Z,98420.76
2022-12-15T20:02:51.705Z,98414.73
2022-12-15T20:05:58.902Z,98413.16
2022-12-15T20:09:04.765Z,98408.91
2022-12-15T20:12:17.634Z,98411.01
2022-12-15T20:15:25.386Z,98413.16
2022-12-15T20:18:31.223Z,98414.77
2022-12-15T20:21:39.030Z,98416.65
2022-12-15T20:24:45.785Z,98415.11
2022-12-15T20:27:51.680Z,98419.77
2022-12-15T20:30:58.462Z,98420.08
2022-12-15T20:34:04.109Z,98406.23
2022-12-15T20:37:17.746Z,98395.52
2022-12-15T20:40:26.718Z,98392.00
2022-12-15T20:43:34.943Z,98396.45
2022-12-15T20:46:42.093Z,98398.73
2022-12-15T20:49:48.037Z,98400.36
2022-12-15T20:52:55.051Z,98407.74
2022-12-15T20:56:00.665Z,98412.20
2022-12-15T20:59:06.732Z,98406.29
2022-12-15T21:02:20.862Z,98397.52
2022-12-15T21:05:27.976Z,98397.56
2022-12-15T21:08:34.314Z,98402.30
2022-12-15T21:11:38.555Z,98404.53
2022-12-15T21:14:44.572Z,98399.42
2022-12-15T21:18:19.711Z,98394.75
2022-12-15T21:21:22.928Z,98383.84
2022-12-15T21:24:30.244Z,98376.16
2022-12-15T21:27:35.804Z,98372.17
2022-12-15T21:30:41.770Z,98367.56
2022-12-15T21:33:47.637Z,98371.20
2022-12-15T21:36:55.553Z,98366.68
2022-12-15T21:40:01.841Z,98354.23
2022-12-15T21:43:07.740Z,98352.26
2022-12-15T21:46:21.461Z,98363.25
2022-12-15T21:49:29.076Z,98358.98
2022-12-15T21:52:35.258Z,98345.48
2022-12-15T21:55:41.310Z,98331.64
2022-12-15T21:58:49.160Z,98325.51
2022-12-15T22:01:55.402Z,98317.95
2022-12-15T22:04:59.638Z,98304.62
2022-12-15T22:08:19.581Z,98299.13
2022-12-15T22:11:27.277Z,98304.66
2022-12-15T22:14:34.946Z,98307.11
2022-12-15T22:17:40.525Z,98311.26
2022-12-15T22:20:48.137Z,98308.73
2022-12-15T22:23:54.081Z,98306.77
2022-12-15T22:27:00.396Z,98302.41
2022-12-15T22:30:07.333Z,98297.27
2022-12-15T22:33:21.890Z,98300.00
2022-12-15T22:36:27.544Z,98298.50
2022-12-15T22:39:33.091Z,98297.50
2022-12-15T22:42:39.556Z,98295.09
2022-12-15T22:45:45.258Z,98289.42
2022-12-15T22:48:52.504Z,98287.02
2022-12-15T22:52:00.411Z,98284.30
2022-12-15T22:55:06.776Z,98276.79
2022-12-15T22:58:28.998Z,98267.85
2022-12-15T23:01:35.340Z,98268.04
2022-12-15T23:04:39.706Z,98264.71
2022-12-15T23:07:45.966Z,98265.65
2022-12-15T23:11:07.629Z,98256.64
2022-12-15T23:14:15.357Z,98236.67
2022-12-15T23:17:21.052Z,98230.87
2022-12-15T23:20:27.012Z,98224.59
2022-12-15T23:23:33.447Z,98216.31
2022-12-15T23:26:39.341Z,98223.25
2022-12-15T23:29:44.888Z,98229.70
2022-12-15T23:32:50.414Z,98231.33
2022-12-15T23:36:02.191Z,98233.76
2022-12-15T23:39:07.886Z,98232.51
2022-12-15T23:42:14.351Z,98222.66
2022-12-15T23:45:20.088Z,98222.13
2022-12-15T23:48:26.071Z,98218.48
2022-12-15T23:51:31.928Z,98220.27
2022-12-15T23:54:37.579Z,98212.84
2022-12-15T23:57:43.437Z,98212.30
